sensor_id;sensor_type;location;lat;lon;timestamp;P1;durP1;ratioP1;P2;durP2;ratioP2
3046;SDS011;1533;44.816;20.420;2022-09-13T02:01:42;11.67;;;9.40;;
3046;SDS011;1533;44.816;20.420;2022-09-13T02:05:19;10.20;;;9.10;;
3046;SDS011;1533;44.816;20.420;2022-09-13T02:09:14;9.17;;;8.10;;
3046;SDS011;1533;44.816;20.420;2022-09-13T02:13:28;10.93;;;8.93;;
3046;SDS011;1533;44.816;20.420;2022-09-13T02:19:37;11.33;;;9.90;;
3046;SDS011;1533;44.816;20.420;2022-09-13T02:26:09;11.70;;;9.87;;
3046;SDS011;1533;44.816;20.420;2022-09-13T02:29:28;10.30;;;9.17;;
3046;SDS011;1533;44.816;20.420;2022-09-13T02:36:34;10.17;;;7.90;;
3046;SDS011;1533;44.816;20.420;2022-09-13T02:43:28;12.50;;;10.40;;
3046;SDS011;1533;44.816;20.420;2022-09-13T02:47:03;10.17;;;9.17;;
3046;SDS011;1533;44.816;20.420;2022-09-13T03:00:19;10.40;;;9.40;;
3046;SDS011;1533;44.816;20.420;2022-09-13T03:03:34;11.73;;;8.90;;
3046;SDS011;1533;44.816;20.420;2022-09-13T03:06:43;12.70;;;9.43;;
3046;SDS011;1533;44.816;20.420;2022-09-13T03:10:07;10.37;;;8.50;;
3046;SDS011;1533;44.816;20.420;2022-09-13T03:13:38;18.93;;;9.37;;
3046;SDS011;1533;44.816;20.420;2022-09-13T03:17:04;10.77;;;9.20;;
3046;SDS011;1533;44.816;20.420;2022-09-13T04:16:06;12.40;;;9.70;;
3046;SDS011;1533;44.816;20.420;2022-09-13T04:34:03;12.30;;;9.07;;
3046;SDS011;1533;44.816;20.420;2022-09-13T04:37:07;16.40;;;9.30;;
3046;SDS011;1533;44.816;20.420;2022-09-13T04:51:19;13.63;;;9.27;;
3046;SDS011;1533;44.816;20.420;2022-09-13T05:53:52;8.70;;;7.80;;
3046;SDS011;1533;44.816;20.420;2022-09-13T05:57:08;14.47;;;8.67;;
3046;SDS011;1533;44.816;20.420;2022-09-13T06:12:22;8.73;;;7.57;;
3046;SDS011;1533;44.816;20.420;2022-09-13T06:15:13;12.53;;;8.63;;
3046;SDS011;1533;44.816;20.420;2022-09-13T06:28:37;14.83;;;8.50;;
3046;SDS011;1533;44.816;20.420;2022-09-13T06:31:26;11.63;;;8.00;;
3046;SDS011;1533;44.816;20.420;2022-09-13T06:36:55;10.57;;;8.60;;
3046;SDS011;1533;44.816;20.420;2022-09-13T06:39:30;11.90;;;8.60;;
3046;SDS011;1533;44.816;20.420;2022-09-13T06:42:09;9.60;;;7.97;;
3046;SDS011;1533;44.816;20.420;2022-09-13T06:45:01;10.07;;;7.70;;
3046;SDS011;1533;44.816;20.420;2022-09-13T06:50:41;8.87;;;7.50;;
3046;SDS011;1533;44.816;20.420;2022-09-13T06:53:09;7.90;;;7.10;;
3046;SDS011;1533;44.816;20.420;2022-09-13T06:55:37;10.67;;;6.97;;
3046;SDS011;1533;44.816;20.420;2022-09-13T06:58:05;7.93;;;6.70;;
3046;SDS011;1533;44.816;20.420;2022-09-13T07:00:33;10.83;;;6.93;;
3046;SDS011;1533;44.816;20.420;2022-09-13T08:26:40;4.77;;;3.57;;
3046;SDS011;1533;44.816;20.420;2022-09-13T08:29:16;5.40;;;4.37;;
3046;SDS011;1533;44.816;20.420;2022-09-13T08:31:52;6.10;;;4.60;;
3046;SDS011;1533;44.816;20.420;2022-09-13T08:35:16;5.17;;;4.23;;
3046;SDS011;1533;44.816;20.420;2022-09-13T08:38:04;4.57;;;4.00;;
3046;SDS011;1533;44.816;20.420;2022-09-13T08:40:33;4.87;;;4.37;;
3046;SDS011;1533;44.816;20.420;2022-09-13T08:53:57;5.70;;;3.50;;
3046;SDS011;1533;44.816;20.420;2022-09-13T09:30:18;5.13;;;3.63;;
3046;SDS011;1533;44.816;20.420;2022-09-13T09:36:08;6.43;;;3.77;;
3046;SDS011;1533;44.816;20.420;2022-09-13T09:38:49;4.60;;;3.67;;
3046;SDS011;1533;44.816;20.420;2022-09-13T09:41:47;6.30;;;3.63;;
3046;SDS011;1533;44.816;20.420;2022-09-13T09:44:34;3.63;;;3.10;;
3046;SDS011;1533;44.816;20.420;2022-09-13T09:47:14;5.63;;;3.40;;
3046;SDS011;1533;44.816;20.420;2022-09-13T10:03:23;10.53;;;2.20;;
3046;SDS011;1533;44.816;20.420;2022-09-13T10:06:46;3.57;;;1.80;;
3046;SDS011;1533;44.816;20.420;2022-09-13T10:09:43;2.10;;;1.60;;
3046;SDS011;1533;44.816;20.420;2022-09-13T12:04:29;2.63;;;2.07;;
3046;SDS011;1533;44.816;20.420;2022-09-13T12:11:22;3.37;;;2.10;;
3046;SDS011;1533;44.816;20.420;2022-09-13T12:14:36;2.30;;;1.70;;
3046;SDS011;1533;44.816;20.420;2022-09-13T12:16:51;3.37;;;1.93;;
3046;SDS011;1533;44.816;20.420;2022-09-13T12:22:02;3.10;;;1.87;;
3046;SDS011;1533;44.816;20.420;2022-09-13T12:24:33;4.27;;;2.30;;
3046;SDS011;1533;44.816;20.420;2022-09-13T12:27:44;2.93;;;2.00;;
3046;SDS011;1533;44.816;20.420;2022-09-13T12:33:10;4.60;;;1.83;;
3046;SDS011;1533;44.816;20.420;2022-09-13T15:20:48;3.23;;;2.50;;
3046;SDS011;1533;44.816;20.420;2022-09-13T15:29:23;5.10;;;2.43;;
3046;SDS011;1533;44.816;20.420;2022-09-13T15:31:57;3.60;;;2.63;;
3046;SDS011;1533;44.816;20.420;2022-09-13T15:34:23;4.10;;;2.73;;
3046;SDS011;1533;44.816;20.420;2022-09-13T15:37:12;5.07;;;3.30;;
3046;SDS011;1533;44.816;20.420;2022-09-13T15:39:47;3.23;;;2.50;;
3046;SDS011;1533;44.816;20.420;2022-09-13T15:45:38;5.17;;;2.37;;
3046;SDS011;1533;44.816;20.420;2022-09-13T15:48:05;4.80;;;2.73;;
3046;SDS011;1533;44.816;20.420;2022-09-13T15:53:43;4.17;;;2.33;;
3046;SDS011;1533;44.816;20.420;2022-09-13T15:56:41;3.40;;;2.40;;
3046;SDS011;1533;44.816;20.420;2022-09-13T15:59:13;3.60;;;2.77;;
3046;SDS011;1533;44.816;20.420;2022-09-13T16:01:46;5.00;;;3.03;;
3046;SDS011;1533;44.816;20.420;2022-09-13T16:36:01;5.20;;;2.97;;
3046;SDS011;1533;44.816;20.420;2022-09-13T16:38:37;5.63;;;2.87;;
3046;SDS011;1533;44.816;20.420;2022-09-13T16:44:32;5.50;;;3.20;;
3046;SDS011;1533;44.816;20.420;2022-09-13T16:47:21;5.43;;;3.03;;
3046;SDS011;1533;44.816;20.420;2022-09-13T16:49:47;3.30;;;2.50;;
3046;SDS011;1533;44.816;20.420;2022-09-13T16:55:30;4.57;;;3.13;;
3046;SDS011;1533;44.816;20.420;2022-09-13T16:58:17;6.00;;;3.23;;
3046;SDS011;1533;44.816;20.420;2022-09-13T17:01:09;4.27;;;2.77;;
3046;SDS011;1533;44.816;20.420;2022-09-13T17:04:00;8.23;;;3.53;;
3046;SDS011;1533;44.816;20.420;2022-09-13T17:06:43;6.07;;;4.17;;
3046;SDS011;1533;44.816;20.420;2022-09-13T17:09:40;7.20;;;3.03;;
3046;SDS011;1533;44.816;20.420;2022-09-13T17:12:13;4.10;;;3.20;;
3046;SDS011;1533;44.816;20.420;2022-09-13T17:14:39;4.67;;;3.50;;
3046;SDS011;1533;44.816;20.420;2022-09-13T17:17:33;3.50;;;2.80;;
3046;SDS011;1533;44.816;20.420;2022-09-13T17:20:18;4.03;;;3.10;;
3046;SDS011;1533;44.816;20.420;2022-09-13T17:22:54;5.90;;;3.43;;
3046;SDS011;1533;44.816;20.420;2022-09-13T17:25:46;5.10;;;4.20;;
3046;SDS011;1533;44.816;20.420;2022-09-13T17:28:42;7.60;;;4.70;;
3046;SDS011;1533;44.816;20.420;2022-09-13T17:31:15;7.07;;;4.30;;
3046;SDS011;1533;44.816;20.420;2022-09-13T17:39:42;6.60;;;4.13;;
3046;SDS011;1533;44.816;20.420;2022-09-13T17:45:13;5.63;;;4.27;;
3046;SDS011;1533;44.816;20.420;2022-09-13T17:47:45;10.57;;;4.90;;
3046;SDS011;1533;44.816;20.420;2022-09-13T17:50:19;7.40;;;6.10;;
3046;SDS011;1533;44.816;20.420;2022-09-13T17:53:22;8.20;;;5.63;;
3046;SDS011;1533;44.816;20.420;2022-09-13T17:56:01;10.90;;;6.47;;
3046;SDS011;1533;44.816;20.420;2022-09-13T17:59:15;11.50;;;6.70;;
3046;SDS011;1533;44.816;20.420;2022-09-13T18:04:58;12.17;;;7.00;;
3046;SDS011;1533;44.816;20.420;2022-09-13T18:07:38;15.83;;;6.53;;
3046;SDS011;1533;44.816;20.420;2022-09-13T18:10:10;10.67;;;8.00;;
3046;SDS011;1533;44.816;20.420;2022-09-13T18:13:07;10.30;;;7.50;;
3046;SDS011;1533;44.816;20.420;2022-09-13T18:15:40;13.93;;;9.90;;
3046;SDS011;1533;44.816;20.420;2022-09-13T18:18:12;12.33;;;8.67;;
3046;SDS011;1533;44.816;20.420;2022-09-13T18:21:03;11.60;;;8.37;;
3046;SDS011;1533;44.816;20.420;2022-09-13T18:23:41;13.80;;;8.40;;
3046;SDS011;1533;44.816;20.420;2022-09-13T18:26:19;14.03;;;8.93;;
3046;SDS011;1533;44.816;20.420;2022-09-13T18:28:58;14.20;;;9.70;;
3046;SDS011;1533;44.816;20.420;2022-09-13T18:31:31;13.20;;;9.07;;
3046;SDS011;1533;44.816;20.420;2022-09-13T18:34:14;10.37;;;7.97;;
3046;SDS011;1533;44.816;20.420;2022-09-13T18:36:53;12.10;;;7.73;;
3046;SDS011;1533;44.816;20.420;2022-09-13T18:40:32;11.60;;;7.33;;
3046;SDS011;1533;44.816;20.420;2022-09-13T18:43:21;10.80;;;8.00;;
3046;SDS011;1533;44.816;20.420;2022-09-13T19:28:37;12.43;;;8.30;;
3046;SDS011;1533;44.816;20.420;2022-09-13T19:32:48;8.77;;;7.47;;
3046;SDS011;1533;44.816;20.420;2022-09-13T19:36:05;15.40;;;7.40;;
3046;SDS011;1533;44.816;20.420;2022-09-13T19:39:17;11.10;;;7.73;;
3046;SDS011;1533;44.816;20.420;2022-09-13T19:42:09;8.00;;;6.50;;
3046;SDS011;1533;44.816;20.420;2022-09-13T19:44:46;17.60;;;7.40;;
3046;SDS011;1533;44.816;20.420;2022-09-13T19:47:15;13.10;;;7.23;;
3046;SDS011;1533;44.816;20.420;2022-09-13T19:50:09;10.73;;;5.70;;
3046;SDS011;1533;44.816;20.420;2022-09-13T19:53:19;6.87;;;6.17;;
3046;SDS011;1533;44.816;20.420;2022-09-13T19:59:14;9.23;;;7.53;;
3046;SDS011;1533;44.816;20.420;2022-09-13T20:02:27;7.87;;;6.00;;
3046;SDS011;1533;44.816;20.420;2022-09-13T20:05:12;11.00;;;6.30;;
3046;SDS011;1533;44.816;20.420;2022-09-13T20:38:33;9.93;;;7.23;;
3046;SDS011;1533;44.816;20.420;2022-09-13T20:41:18;8.97;;;6.63;;
3046;SDS011;1533;44.816;20.420;2022-09-13T20:50:42;8.50;;;6.50;;
3046;SDS011;1533;44.816;20.420;2022-09-13T20:53:59;8.57;;;6.57;;
3046;SDS011;1533;44.816;20.420;2022-09-13T21:24:24;8.97;;;5.93;;
3046;SDS011;1533;44.816;20.420;2022-09-13T21:27:44;6.90;;;5.67;;
3046;SDS011;1533;44.816;20.420;2022-09-13T21:30:52;6.80;;;5.63;;
3046;SDS011;1533;44.816;20.420;2022-09-13T21:33:49;8.80;;;6.27;;
3046;SDS011;1533;44.816;20.420;2022-09-13T21:37:27;8.37;;;6.10;;
3046;SDS011;1533;44.816;20.420;2022-09-13T21:47:03;9.50;;;6.70;;
3046;SDS011;1533;44.816;20.420;2022-09-13T21:50:05;8.53;;;5.67;;
3046;SDS011;1533;44.816;20.420;2022-09-13T21:53:23;9.90;;;6.17;;
3046;SDS011;1533;44.816;20.420;2022-09-13T21:56:24;10.27;;;6.10;;
3046;SDS011;1533;44.816;20.420;2022-09-13T21:59:23;12.87;;;6.53;;
3046;SDS011;1533;44.816;20.420;2022-09-13T22:12:36;7.77;;;5.60;;
3046;SDS011;1533;44.816;20.420;2022-09-13T22:23:39;8.13;;;6.80;;
3046;SDS011;1533;44.816;20.420;2022-09-13T22:26:10;10.23;;;7.47;;
3046;SDS011;1533;44.816;20.420;2022-09-13T22:28:50;10.97;;;8.20;;
3046;SDS011;1533;44.816;20.420;2022-09-13T22:31:34;8.83;;;6.97;;
3046;SDS011;1533;44.816;20.420;2022-09-13T22:34:15;11.67;;;6.63;;
3046;SDS011;1533;44.816;20.420;2022-09-13T22:36:57;7.80;;;6.83;;
3046;SDS011;1533;44.816;20.420;2022-09-13T22:39:29;8.33;;;6.50;;
3046;SDS011;1533;44.816;20.420;2022-09-13T22:42:24;11.50;;;6.83;;
3046;SDS011;1533;44.816;20.420;2022-09-13T22:45:02;11.47;;;7.10;;
3046;SDS011;1533;44.816;20.420;2022-09-13T22:47:45;7.90;;;5.90;;
3046;SDS011;1533;44.816;20.420;2022-09-13T22:51:02;6.73;;;5.53;;
3046;SDS011;1533;44.816;20.420;2022-09-13T22:53:52;15.20;;;5.47;;
3046;SDS011;1533;44.816;20.420;2022-09-13T22:56:35;6.10;;;5.30;;
3046;SDS011;1533;44.816;20.420;2022-09-13T22:59:30;6.90;;;6.13;;
3046;SDS011;1533;44.816;20.420;2022-09-13T23:02:04;8.13;;;6.90;;
3046;SDS011;1533;44.816;20.420;2022-09-13T23:04:32;9.83;;;6.27;;
3046;SDS011;1533;44.816;20.420;2022-09-13T23:07:14;10.23;;;6.30;;
3046;SDS011;1533;44.816;20.420;2022-09-13T23:09:56;11.50;;;6.17;;
3046;SDS011;1533;44.816;20.420;2022-09-13T23:12:29;13.73;;;7.43;;
3046;SDS011;1533;44.816;20.420;2022-09-13T23:14:55;11.43;;;7.17;;
3046;SDS011;1533;44.816;20.420;2022-09-13T23:17:38;9.90;;;6.63;;
3046;SDS011;1533;44.816;20.420;2022-09-13T23:20:06;11.63;;;7.40;;
3046;SDS011;1533;44.816;20.420;2022-09-13T23:23:00;8.40;;;6.33;;
3046;SDS011;1533;44.816;20.420;2022-09-13T23:25:35;10.40;;;6.73;;
3046;SDS011;1533;44.816;20.420;2022-09-13T23:28:02;10.23;;;6.37;;
3046;SDS011;1533;44.816;20.420;2022-09-13T23:34:01;9.40;;;6.67;;
3046;SDS011;1533;44.816;20.420;2022-09-13T23:36:37;12.10;;;6.20;;
3046;SDS011;1533;44.816;20.420;2022-09-13T23:39:27;7.50;;;6.47;;
3046;SDS011;1533;44.816;20.420;2022-09-13T23:41:56;7.20;;;5.97;;
3046;SDS011;1533;44.816;20.420;2022-09-13T23:44:25;8.90;;;6.40;;
3046;SDS011;1533;44.816;20.420;2022-09-13T23:46:53;8.13;;;6.13;;
3046;SDS011;1533;44.816;20.420;2022-09-13T23:49:29;8.20;;;6.50;;
3046;SDS011;1533;44.816;20.420;2022-09-13T23:52:26;8.73;;;6.60;;
3046;SDS011;1533;44.816;20.420;2022-09-13T23:55:10;9.23;;;6.60;;
3046;SDS011;1533;44.816;20.420;2022-09-13T23:58:05;7.30;;;6.50;;
